Alamo, Nevada Weather observations

Data are for observation ending at time listed.
 Day   Time    Ave.   Ave.  Ave.  Vector   Max.   Stn.    Total    Solar   Ave.  
  of    of     Air    Rel.  Wind   Wind    Wind   Baro.  Precip.   Rad.    Soil  
Year   Day     Temp.  Hum.  Speed  Dir.    Gust   Pres.                    Temp. 
2014   (PST)    F      %     mph   deg.    mph     mb.     in.     W/m2     F   
------------------------------------------------------------------------------
 326   14:30   62.7    24    1.5   150      4.0   892.7    0.00     392    58.6
 326   14:40   62.5    24    1.8   174      6.5   892.6    0.00     361    58.7
 326   14:50   62.4    25    2.5   173      9.8   892.4    0.00     332    58.8
 326   15:00   61.6    26    2.8   172     10.7   892.4    0.00     306    58.8
 326   15:10   61.7    26    2.4   178     10.4   892.6    0.00     278    58.8
 326   15:20   61.5    26    1.9   161      7.5   892.6    0.00     252    58.7
 326   15:30   61.3    26    1.9   166      5.7   892.4    0.00     220    58.6
 326   15:40   60.8    27    2.0   182      9.4   892.3    0.00     183    58.5
 326   15:50   59.9    28    2.0   172      9.6   892.3    0.00     147    58.3
 326   16:00   58.6    29    2.4   176      6.8   892.2    0.00     104    57.9
 326   16:10   57.8    30    1.8   177      6.2   892.3    0.00      18    57.6
 326   16:20   57.2    31    1.8   178      6.6   892.3    0.00      13    57.3
 326   16:30   56.7    31    1.9   172      6.7   891.9    0.00       9    56.9
 326   16:40   56.3    31    1.7   168      5.1   891.8    0.00       2    56.6
 326   16:50   55.4    32    1.3   184      4.3   892.0    0.00       0    56.3
 326   17:00   54.4    33    1.5   156      6.6   892.0    0.00       0    55.9
 326   17:10   54.4    33    1.3   163      5.3   892.0    0.00       0    55.6
 326   17:20   54.2    33    1.2   171      3.3   892.1    0.00       0    55.3
 326   17:30   54.0    33    1.1   171      3.2   892.3    0.00       0    55.1
 326   17:40   53.3    34    1.2   149      3.1   892.3    0.00       0    54.8
 326   17:50   53.3    35    1.1   160      4.4   892.5    0.00       0    54.5
 326   18:00   53.3    35    1.4   188      4.3   892.4    0.00       0    54.3
 326   18:10   53.5    35    2.5   185     15.7   892.5    0.00       0    54.1
 326   18:20   53.7    34    1.3   190      4.9   892.7    0.00       0    53.9
 326   18:30   53.7    34    1.3   204      4.7   892.8    0.00       0    53.7
 326   18:40   54.3    34    4.2   206      8.2   892.8    0.00       0    53.5
 326   18:50   53.7    35    2.3   207      6.1   892.8    0.00       0    53.4
 326   19:00   52.4    38    1.4   198      4.5   892.8    0.00       0    53.2
 326   19:10   52.5    37    3.4   209      6.9   893.0    0.00       0    53.1
 326   19:20   50.9    40    2.8   199      5.4   893.1    0.00       0    53.0
 326   19:30   50.1    41    1.3   203      3.7   893.1    0.00       0    52.9
 326   19:40   50.1    41    1.3   252      4.0   893.2    0.00       0    52.7
 326   19:50   49.4    42    1.5   202      4.2   893.2    0.00       0    52.5
 326   20:00   48.3    44    1.5   190      3.4   893.2    0.00       0    52.4
 326   20:10   47.8    45    1.0   244      3.4   893.3    0.00       0    52.2
 326   20:20   48.1    44    2.2     0      4.5   893.7    0.00       0    52.0
 326   20:30   47.1    46    1.3    27      4.2   894.0    0.00       0    51.7
 326   20:40   45.6    49    0.3   128      2.0   894.0    0.00       0    51.5
 326   20:50   44.8    50    3.0   342      7.2   894.1    0.00       0    51.4
 326   21:00   44.9    49    1.8   316      5.7   894.4    0.00       0    51.2
 326   21:10   45.0    49    3.0    32      7.1   894.7    0.00       0    51.0
 326   21:20   44.9    48    2.0    41      5.2   894.8    0.00       0    50.8
 326   21:30   46.2    45    3.0   348      6.8   895.1    0.00       0    50.6
 326   21:40   49.3    40    5.4   347      9.0   895.6    0.00       0    50.5
 326   21:50   50.6    44    5.4   354     11.9   895.7    0.00       0    50.3
 326   22:00   52.3    44    7.4   356     12.9   896.0    0.00       0    50.3
 326   22:10   52.1    43    7.8     2     17.2   896.2    0.00       0    50.3
 326   22:20   52.0    41    7.0   352     14.9   896.3    0.00       0    50.3
 326   22:30   52.1    40    7.6   346     22.2   896.3    0.00       0    50.3
 326   22:40   52.2    38    6.6   336     18.1   896.5    0.00       0    50.4
 326   22:50   51.7    39    6.2   342     13.8   896.7    0.00       0    50.4
 326   23:00   51.4    38    8.0   344     17.5   897.1    0.00       0    50.3
 326   23:10   51.2    37    7.9   340     15.1   897.2    0.00       0    50.3
 326   23:20   50.8    37    5.7   326     10.8   897.2    0.00       0    50.3
 326   23:30   50.1    38    4.4   319      9.3   897.4    0.00       0    50.2
 326   23:40   49.9    38    5.9   334     11.5   897.6    0.00       0    50.1
 326   23:50   49.9    38    7.4   330     15.2   897.7    0.00       0    50.1
 327    0:00   50.0    35    7.5   337     16.7   898.0    0.00       0    49.9
 327    0:10   49.8    34    9.0   338     17.9   898.2    0.00       0    49.9
 327    0:20   49.2    34    7.6   339     12.9   898.2    0.00       0    49.8
 327    0:30   48.7    34    6.8   344     12.1   898.3    0.00       0    49.7
 327    0:40   48.2    35    6.9   344     12.3   898.4    0.00       0    49.6
 327    0:50   47.8    35    6.3   340     11.3   898.4    0.00       0    49.5
 327    1:00   47.9    34    6.7   337     11.5   898.6    0.00       0    49.5
 327    1:10   47.8    33    5.6   340      8.9   899.0    0.00       0    49.4
 327    1:20   47.1    34    4.5   343      9.1   899.3    0.00       0    49.2
 327    1:30   46.5    35    4.5   349     11.5   899.5    0.00       0    49.1
 327    1:40   46.2    35    4.6   346     12.8   899.6    0.00       0    49.0
 327    1:50   46.7    34    5.7   351     10.2   899.8    0.00       0    48.9
 327    2:00   46.4    35    6.1   347     13.2   899.9    0.00       0    48.8
 327    2:10   46.2    35    5.6   346     12.0   900.0    0.00       0    48.7
 327    2:20   46.2    35    6.2   350     12.3   900.2    0.00       0    48.6
 327    2:30   45.9    36    6.7   350     13.8   900.4    0.00       0    48.5
 327    2:40   45.6    38    5.5     2     11.2   900.5    0.00       0    48.4
 327    2:50   45.0    39    5.5     4     11.9   900.6    0.00       0    48.3
 327    3:00   44.4    41    4.4     6      9.0   900.8    0.00       0    48.3
 327    3:10   43.9    41    4.6     5      9.1   900.8    0.00       0    48.2
 327    3:20   43.9    41    4.7   340     10.5   901.1    0.00       0    48.1
 327    3:30   43.2    42    4.1   356      8.1   901.2    0.00       0    48.0
 327    3:40   42.7    42    4.1   358      7.7   901.2    0.00       0    47.9
 327    3:50   42.2    43    3.1   336      5.6   901.3    0.00       0    47.8
 327    4:00   42.1    43    3.4   343      6.5   901.3    0.00       0    47.7
 327    4:10   40.9    46    1.8     7      3.6   901.3    0.00       0    47.5
 327    4:20   39.7    49    1.7     5      3.1   901.4    0.00       0    47.4
 327    4:30   38.9    50    1.7   339      3.0   901.5    0.00       0    47.3
 327    4:40   39.1    49    2.9   341      4.8   901.8    0.00       0    47.1
 327    4:50   39.4    48    3.1   338      5.5   902.0    0.00       0    46.9
 327    5:00   39.3    48    2.4   342      5.0   902.2    0.00       0    46.8
 327    5:10   38.7    49    2.0   330      3.9   902.6    0.00       0    46.6
 327    5:20   38.8    48    2.9   312      6.5   902.8    0.00       0    46.5
 327    5:30   39.7    46    3.4   309      7.0   902.9    0.00       0    46.3
 327    5:40   39.5    46    2.9   318      6.0   902.9    0.00       0    46.2
 327    5:50   39.7    45    3.4   338      6.6   903.1    0.00       0    46.1
 327    6:00   39.0    47    2.6     8      4.9   903.4    0.00       0    45.9
 327    6:10   37.7    50    2.8    14      4.4   903.7    0.00       0    45.8
 327    6:20   37.5    50    3.5   343      7.3   903.9    0.00       0    45.7
 327    6:30   37.8    48    3.2   348      7.2   903.9    0.00       0    45.7
 327    6:40   37.5    50    3.4     9      6.1   904.3    0.00       0    45.5
 327    6:50   38.0    48    2.6   325      5.6   904.4    0.00      10    45.4
 327    7:00   39.3    45    2.9   354      5.8   904.5    0.00      14    45.4
 327    7:10   37.9    50    2.2    23      4.7   904.7    0.00      14    45.3
 327    7:20   39.1    46    2.9   333      8.3   904.8    0.00      17    45.2
 327    7:30   40.9    42    3.8   343      7.2   904.9    0.00      22    45.1
 327    7:40   41.4    42    3.6   354      7.5   905.1    0.00      26    45.1
 327    7:50   42.2    40    4.5   340      8.4   905.4    0.00      27    45.1
 327    8:00   42.7    39    5.1   317      9.8   905.6    0.00      31    45.1
 327    8:10   43.3    37    5.1   324     10.7   905.7    0.00      27    45.1
 327    8:20   44.1    35    4.5   337      9.6   905.8    0.00      27    45.1
 327    8:30   44.5    34    5.7   324     13.4   905.8    0.00      27    45.2
 327    8:40   45.0    34    5.6   325     10.7   905.8    0.00      35    45.2
 327    8:50   45.4    34    6.2   328     12.7   905.7    0.00      34    45.3
 327    9:00   45.8    33    6.4   328     11.1   905.7    0.00      47    45.4
 327    9:10   46.3    33    6.0   322     12.7   905.7    0.00      33    45.5
 327    9:20   47.0    31    5.6   339     12.9   905.6    0.00      35    45.6
 327    9:30   47.3    30    6.0   330     10.6   905.7    0.00      34    45.7
 327    9:40   47.5    31    5.2     2      9.8   905.7    0.00      37    45.7
 327    9:50   47.7    30    5.3   333      9.5   905.7    0.00      40    45.8
 327   10:00   48.5    29    5.9   302     11.6   905.9    0.00      89    46.0
 327   10:10   49.3    27    5.3   320     10.2   905.9    0.00     152    46.1
 327   10:20   49.0    27    6.8   332     11.0   905.8    0.00      64    46.3
 327   10:30   49.3    26    6.8   336     14.0   905.8    0.00      65    46.7
 327   10:40   49.4    26    7.2     9     12.8   905.7    0.00      82    47.2
 327   10:50   49.9    25    5.5   354     10.0   905.6    0.00     133    47.8
 327   11:00   50.4    24    6.0   346     11.0   905.4    0.00      82    48.4
 327   11:10   52.2    23    5.7   305     12.1   905.3    0.00     120    49.0
 327   11:20   51.6    23    6.1   351     11.5   905.3    0.00     279    49.5
 327   11:30   52.3    21    6.1   326     11.4   905.2    0.00     122    49.9
 327   11:40   52.8    20    6.8   331     13.4   905.0    0.00     521    50.2
 327   11:50   52.9    20    5.6   333     10.5   904.9    0.00     675    50.5
 327   12:00   53.5    19    6.6   339     12.9   904.7    0.00     674    51.0
 327   12:10   53.6    19    5.5   336     12.2   904.6    0.00     668    51.6
 327   12:20   53.7    19    6.0   337     13.2   904.5    0.00     667    52.3
 327   12:30   54.6    18    5.9   325     11.8   904.4    0.00     661    52.9
 327   12:40   55.3    17    7.2   318     15.1   904.2    0.00     653    53.5
 327   12:50   54.7    18    6.2   343     11.8   904.1    0.00     638    54.2
 327   13:00   54.7    17    6.5   339     14.2   903.9    0.00     627    54.7
 327   13:10   55.9    16    6.1   319     12.6   903.8    0.00     615    55.2
 327   13:20   56.3    16    5.3   316     10.3   903.7    0.00     595    55.7
 327   13:30   55.7    16    6.2   333     12.4   903.6    0.00     579    56.2
 327   13:40   56.2    16    5.2   317     11.5   903.6    0.00     549    56.6
 327   13:50   56.3    16    5.9   333     11.5   903.5    0.00     538    56.9
 327   14:00   56.1    16    5.4   313     13.3   903.5    0.00     515    57.3
 327   14:10   56.4    16    5.1   333      9.6   903.4    0.00     501    57.5
 327   14:20   56.0    16    5.7   318     10.9   903.4    0.00     484    57.8

Return to Alamo, Nevada graphs page.


Western Regional Climate Center,wrcc@dri.edu